This is the latest recevied weather packets stored in our database for station/object CT4TX-11. If no packets are shown the sender has not sent any weather packets the latest 10 day(s).
| Time | Temp. | Humidity | Pressure | Rain* | Wind** | Luminosity | Snow |
|---|---|---|---|---|---|---|---|
| 1777307668 | 30.56° C | 39% | 998.6 hPa | - | - | - | - |
| 1777306768 | 30.56° C | 40% | 998.6 hPa | - | - | - | - |
| 1777305867 | 30.56° C | 40% | 998.8 hPa | - | - | - | - |
| 1777304967 | 30.56° C | 40% | 998.8 hPa | - | - | - | - |
| 1777304067 | 30° C | 40% | 998.8 hPa | - | - | - | - |
| 1777303166 | 30° C | 40% | 999 hPa | - | - | - | - |
| 1777302266 | 30° C | 39% | 999.1 hPa | - | - | - | - |
| 1777301366 | 30.56° C | 39% | 999.2 hPa | - | - | - | - |
| 1777300466 | 30° C | 38% | 999.4 hPa | - | - | - | - |
| 1777299566 | 30.56° C | 37% | 999.5 hPa | - | - | - | - |
| 1777298665 | 30° C | 39% | 999.7 hPa | - | - | - | - |
| 1777297765 | 30° C | 37% | 999.9 hPa | - | - | - | - |
| 1777296865 | 30° C | 37% | 1000.1 hPa | - | - | - | - |
| 1777295965 | 29.44° C | 42% | 1000.2 hPa | - | - | - | - |
| 1777295064 | 28.89° C | 41% | 1000.3 hPa | - | - | - | - |
| 1777294164 | 28.33° C | 43% | 1000.5 hPa | - | - | - | - |
| 1777293263 | 28.33° C | 45% | 1000.7 hPa | - | - | - | - |
| 1777292363 | 28.33° C | 45% | 1000.9 hPa | - | - | - | - |
| 1777291468 | 27.78° C | 46% | 1001 hPa | - | - | - | - |
| 1777290568 | 27.78° C | 46% | 1001.2 hPa | - | - | - | - |
| 1777289668 | 28.33° C | 43% | 1001.5 hPa | - | - | - | - |
| 1777288768 | 28.33° C | 42% | 1001.6 hPa | - | - | - | - |
| 1777287868 | 28.33° C | 43% | 1001.8 hPa | - | - | - | - |
| 1777286967 | 28.33° C | 43% | 1001.9 hPa | - | - | - | - |
| 1777286067 | 28.89° C | 41% | 1002 hPa | - | - | - | - |
* Rain since midnight (hover to see other rain measurements)
** Current wind speed in m/s (hover to see current wind gust speed)